Main page
METAR-TAF:

METAR-TAF

Airports :

Lyon–Bron Airport

Lyon, France

latitude: 45-43N, longitude: 004-57E, elevation: 200 m

Current weather observation

The report was made 33 minutes ago, at 03:30 UTC
Wind 3 kt from the South/Southeast
Temperature 17°C
Humidity 94%
Pressure 1009 hPa
Visibility 10 km or more
no clouds below 1500 m and no cumulonimbus

METAR: LFLY 150330Z AUTO 15003KT CAVOK 17/16 Q1009 TEMPO 4000 MIFG

Time: 06:03 (04:03 UTC)

Forecast

The report was made 5 hours and 3 minutes ago, at 23:00 UTC
Forecast valid from 15 at 00 UTC to 15 at 24 UTC
Wind 5 kt from the Southeast
Visibility 10 km or more
no clouds below 1500 m and no cumulonimbus
Probability 30%
from 15 at 00 UTC to 15 at 05 UTC
Visibility: 4000 m
Shallow fog
Probability 30% :
Temporary
from 15 at 09 UTC to 15 at 12 UTC
Wind 10 kt from the Southwest
Few clouds at a height of 6000 ft, Towering cumulus.

TAF: LFLY 142300Z 1500/1524 13005KT CAVOK PROB30 1500/1505 4000 MIFG PROB30 TEMPO 1509/1512 23010KT FEW060TCU

Weather observations and forecasts of more than 4000 airports (METAR and TAF reports).

The available stations are represented by yellow and red dots on the map.

Hover mouse over dot to see the name of the station.

Then click to see weather observations and forecasts.

To change the map : click on the green buttons with a black cross to zoom in, on the green button with a dash to zoom out, or on the green arrows for adjacent maps.


METAR-TAF: